createdAt,value
2019-05-17T00:06:42.096Z,11.05
2019-05-17T00:17:46.666Z,10.96
2019-05-17T00:28:50.940Z,11.00
2019-05-17T00:39:51.386Z,10.95
2019-05-17T00:50:53.192Z,10.92
2019-05-17T01:01:57.324Z,10.74
2019-05-17T01:12:58.067Z,10.74
2019-05-17T01:23:57.834Z,10.74
2019-05-17T01:35:01.344Z,10.69
2019-05-17T01:45:58.434Z,10.66
2019-05-17T01:57:02.414Z,10.51
2019-05-17T02:08:01.567Z,10.53
2019-05-17T02:19:02.790Z,10.55
2019-05-17T02:30:07.117Z,10.63
2019-05-17T02:41:09.127Z,10.62
2019-05-17T02:52:06.346Z,10.55
2019-05-17T03:03:09.614Z,10.39
2019-05-17T03:14:08.415Z,10.37
2019-05-17T03:25:13.237Z,10.22
2019-05-17T03:36:17.525Z,10.15
2019-05-17T03:47:22.450Z,10.03
2019-05-17T03:58:25.489Z,9.67
2019-05-17T04:09:24.594Z,9.50
2019-05-17T04:20:27.242Z,9.53
2019-05-17T04:31:34.743Z,9.46
2019-05-17T04:42:33.064Z,9.55
2019-05-17T04:53:32.876Z,9.70
2019-05-17T05:04:38.358Z,9.75
2019-05-17T05:15:35.277Z,9.96
2019-05-17T05:26:36.402Z,10.33
2019-05-17T05:37:37.136Z,10.93
2019-05-17T05:48:36.003Z,11.03
2019-05-17T05:59:37.471Z,11.34
2019-05-17T06:10:35.312Z,11.76
2019-05-17T06:21:36.094Z,12.05
2019-05-17T06:32:37.976Z,12.42
2019-05-17T06:43:38.451Z,12.33
2019-05-17T06:54:27.138Z,12.96
2019-05-17T07:05:30.956Z,13.44
2019-05-17T07:16:30.729Z,12.96
2019-05-17T07:27:40.622Z,13.17
2019-05-17T07:38:32.424Z,13.37
2019-05-17T07:49:33.037Z,13.41
2019-05-17T08:00:36.124Z,13.53
2019-05-17T08:11:34.434Z,13.73
2019-05-17T08:22:39.584Z,14.72
2019-05-17T08:33:40.985Z,14.46
2019-05-17T08:44:41.429Z,14.78
2019-05-17T08:55:35.323Z,14.84
2019-05-17T09:06:34.499Z,14.83
2019-05-17T09:17:36.492Z,15.92
2019-05-17T09:28:39.219Z,16.03
2019-05-17T09:39:43.434Z,16.37
2019-05-17T09:50:42.445Z,16.04
2019-05-17T10:01:45.303Z,16.66
2019-05-17T10:12:42.087Z,16.60
2019-05-17T10:23:40.625Z,16.55
2019-05-17T10:34:40.151Z,17.07
2019-05-17T10:45:41.502Z,16.65
2019-05-17T10:56:41.301Z,17.07
2019-05-17T11:07:42.149Z,16.82
2019-05-17T11:18:41.727Z,17.26
2019-05-17T11:29:41.832Z,17.70
2019-05-17T11:40:30.578Z,18.28
2019-05-17T11:51:29.516Z,17.07
2019-05-17T12:02:29.000Z,16.41
2019-05-17T12:13:29.551Z,16.30
2019-05-17T12:24:30.546Z,16.92
2019-05-17T12:35:32.830Z,17.35
2019-05-17T12:46:31.364Z,17.26
2019-05-17T12:57:29.441Z,17.95
2019-05-17T13:08:27.038Z,18.35
2019-05-17T13:19:25.560Z,17.25
2019-05-17T13:30:24.463Z,17.29
2019-05-17T13:41:30.387Z,18.27
2019-05-17T13:52:31.598Z,17.53
2019-05-17T14:03:29.266Z,17.46
2019-05-17T14:14:29.634Z,17.25
2019-05-17T14:25:29.517Z,16.85
2019-05-17T14:36:26.505Z,17.18
2019-05-17T14:47:23.633Z,16.85
2019-05-17T14:58:23.102Z,17.25
2019-05-17T15:09:30.225Z,18.49
2019-05-17T15:20:26.860Z,17.03
2019-05-17T15:31:26.355Z,16.62
2019-05-17T15:42:25.208Z,16.30
2019-05-17T15:53:25.769Z,16.53
2019-05-17T16:04:21.653Z,16.60
2019-05-17T16:15:17.761Z,16.42
2019-05-17T16:26:15.914Z,16.26
2019-05-17T16:37:15.498Z,16.16
2019-05-17T16:48:16.337Z,15.88
2019-05-17T16:59:15.318Z,16.03
2019-05-17T17:10:17.190Z,15.79
2019-05-17T17:21:14.524Z,15.55
2019-05-17T17:32:21.440Z,15.28
2019-05-17T17:43:12.296Z,15.08
2019-05-17T17:54:10.113Z,14.87
2019-05-17T18:05:11.767Z,14.71
2019-05-17T18:16:03.897Z,14.54
2019-05-17T18:27:03.495Z,14.44
2019-05-17T18:38:04.150Z,14.38
2019-05-17T18:49:00.021Z,14.13
2019-05-17T18:59:58.654Z,13.99
2019-05-17T19:10:54.522Z,13.91
2019-05-17T19:21:52.248Z,13.76
2019-05-17T19:32:53.933Z,13.65
2019-05-17T19:43:53.642Z,13.53
2019-05-17T19:54:44.810Z,13.45
2019-05-17T20:05:42.203Z,13.37
2019-05-17T20:16:38.224Z,13.32
2019-05-17T20:27:34.470Z,13.25
2019-05-17T20:38:34.443Z,13.18
2019-05-17T20:49:30.618Z,13.15
2019-05-17T21:00:28.965Z,13.11
2019-05-17T21:11:29.111Z,13.09
2019-05-17T21:22:23.590Z,12.97
2019-05-17T21:33:23.139Z,12.94
2019-05-17T21:44:20.093Z,12.91
2019-05-17T21:55:19.650Z,12.82
2019-05-17T22:06:18.667Z,12.84
2019-05-17T22:17:18.622Z,12.78
2019-05-17T22:28:22.645Z,12.79
2019-05-17T22:39:26.512Z,12.74
2019-05-17T22:50:28.588Z,12.53
2019-05-17T23:01:27.641Z,12.53
2019-05-17T23:12:26.393Z,12.48
2019-05-17T23:23:28.924Z,12.44
2019-05-17T23:34:27.618Z,12.37
2019-05-17T23:45:24.795Z,12.23
2019-05-17T23:56:26.588Z,12.03
